createdAt,value
2022-12-11T00:02:06.623Z,-1.00
2022-12-11T00:04:35.083Z,-1.10
2022-12-11T00:07:04.626Z,-1.20
2022-12-11T00:09:32.856Z,-1.20
2022-12-11T00:12:02.910Z,-1.20
2022-12-11T00:14:32.174Z,-1.20
2022-12-11T00:17:00.728Z,-1.10
2022-12-11T00:19:29.449Z,-1.00
2022-12-11T00:21:58.052Z,-1.00
2022-12-11T00:24:27.865Z,-1.00
2022-12-11T00:26:56.190Z,-0.80
2022-12-11T00:29:24.865Z,-0.90
2022-12-11T00:31:53.291Z,-0.70
2022-12-11T00:34:21.784Z,-0.60
2022-12-11T00:36:50.281Z,-0.60
2022-12-11T00:39:19.005Z,-0.50
2022-12-11T00:41:48.858Z,-0.60
2022-12-11T00:44:17.195Z,-0.60
2022-12-11T00:46:45.695Z,-0.60
2022-12-11T00:49:14.036Z,-0.70
2022-12-11T00:51:42.997Z,-0.80
2022-12-11T00:54:11.780Z,-0.80
2022-12-11T00:56:40.089Z,-0.20
2022-12-11T00:59:10.358Z,-0.90
2022-12-11T01:01:39.102Z,-1.00
2022-12-11T01:04:08.001Z,-0.70
2022-12-11T01:06:36.221Z,-0.90
2022-12-11T01:09:22.643Z,-1.00
2022-12-11T01:11:51.042Z,-1.00
2022-12-11T01:14:21.087Z,-1.00
2022-12-11T01:16:49.887Z,-0.90
2022-12-11T01:19:18.195Z,-0.90
2022-12-11T01:21:46.741Z,-0.80
2022-12-11T01:24:15.259Z,-0.90
2022-12-11T01:26:43.993Z,-0.60
2022-12-11T01:29:12.394Z,-1.00
2022-12-11T01:31:43.292Z,-1.00
2022-12-11T01:34:12.489Z,-1.00
2022-12-11T01:36:41.568Z,-1.00
2022-12-11T01:39:10.163Z,-0.90
2022-12-11T01:41:38.946Z,-0.90
2022-12-11T01:44:29.710Z,-0.90
2022-12-11T01:46:59.993Z,-0.90
2022-12-11T01:49:31.468Z,-0.90
2022-12-11T01:52:05.861Z,-0.90
2022-12-11T01:54:36.139Z,-0.90
2022-12-11T01:57:09.492Z,-0.90
2022-12-11T01:59:42.888Z,-0.80
2022-12-11T02:02:20.405Z,-1.00
2022-12-11T02:04:55.622Z,-1.20
2022-12-11T02:07:25.269Z,-1.00
2022-12-11T02:09:53.713Z,-1.10
2022-12-11T02:12:32.801Z,-1.10
2022-12-11T02:15:13.223Z,-1.00
2022-12-11T02:17:52.194Z,-1.00
2022-12-11T02:20:28.250Z,-1.20
2022-12-11T02:23:45.477Z,-1.20
2022-12-11T02:26:37.809Z,-1.30
2022-12-11T02:29:14.885Z,-1.40
2022-12-11T02:31:51.688Z,-1.30
2022-12-11T02:34:28.283Z,-1.50
2022-12-11T02:37:06.115Z,-1.50
2022-12-11T02:39:40.035Z,-1.50
2022-12-11T02:42:12.935Z,-1.50
2022-12-11T02:44:44.993Z,-1.40
2022-12-11T02:47:19.771Z,-1.20
2022-12-11T02:49:51.668Z,-1.30
2022-12-11T02:52:24.845Z,-1.20
2022-12-11T02:54:57.970Z,-1.10
2022-12-11T02:57:35.118Z,-1.00
2022-12-11T03:00:09.805Z,-1.00
2022-12-11T03:02:40.422Z,-0.80
2022-12-11T03:05:11.105Z,-0.70
2022-12-11T03:07:43.444Z,-0.60
2022-12-11T03:10:16.882Z,-0.60
2022-12-11T03:12:54.230Z,-0.50
2022-12-11T03:15:33.441Z,-0.40
2022-12-11T03:18:15.279Z,-0.40
2022-12-11T03:20:48.985Z,-0.30
2022-12-11T03:23:29.459Z,-0.20
2022-12-11T03:26:02.543Z,-0.20
2022-12-11T03:28:40.756Z,-0.10
2022-12-11T03:31:16.135Z,-0.20
2022-12-11T03:33:50.541Z,0.00
2022-12-11T03:36:27.383Z,0.00
2022-12-11T03:39:01.775Z,0.10
2022-12-11T03:41:37.191Z,-0.20
2022-12-11T03:44:06.277Z,-0.10
2022-12-11T03:46:39.796Z,-0.30
2022-12-11T03:49:16.977Z,-0.30
2022-12-11T03:51:49.867Z,-0.30
2022-12-11T03:54:19.007Z,-0.30
2022-12-11T03:56:50.636Z,-0.30
2022-12-11T03:59:19.225Z,-0.10
2022-12-11T04:01:49.362Z,-0.20
2022-12-11T04:04:19.581Z,-0.10
2022-12-11T04:06:49.590Z,0.00
2022-12-11T04:09:18.358Z,0.00
2022-12-11T04:11:47.240Z,0.10
2022-12-11T04:14:34.243Z,0.20
2022-12-11T04:17:04.635Z,0.20
2022-12-11T04:20:02.331Z,0.20
2022-12-11T04:22:48.584Z,0.40
2022-12-11T04:25:16.902Z,0.20
2022-12-11T04:27:51.355Z,0.30
2022-12-11T04:30:23.738Z,0.40
2022-12-11T04:32:56.434Z,0.40
2022-12-11T04:35:25.044Z,0.40
2022-12-11T04:37:54.597Z,0.40
2022-12-11T04:40:23.806Z,0.30
2022-12-11T04:42:52.993Z,0.30
2022-12-11T04:45:21.386Z,0.20
2022-12-11T04:47:50.399Z,0.30
2022-12-11T04:59:41.168Z,0.00
2022-12-11T05:02:09.758Z,0.10
2022-12-11T05:04:37.988Z,0.00
2022-12-11T05:07:06.435Z,0.00
2022-12-11T05:09:35.333Z,0.00
2022-12-11T05:12:03.949Z,0.00
2022-12-11T05:14:33.073Z,0.00
2022-12-11T05:17:02.886Z,-0.10
2022-12-11T05:19:31.787Z,-0.20
2022-12-11T05:22:00.473Z,-0.10
2022-12-11T05:24:29.458Z,-0.10
2022-12-11T05:26:58.261Z,-0.10
2022-12-11T05:29:26.978Z,-0.20
2022-12-11T05:31:55.502Z,-0.20
2022-12-11T05:34:26.120Z,-0.20
2022-12-11T05:36:54.540Z,-0.20
2022-12-11T05:39:22.936Z,-0.20
2022-12-11T05:41:51.551Z,-0.20
2022-12-11T05:44:19.918Z,-0.10
2022-12-11T05:46:48.380Z,-0.30
2022-12-11T05:49:19.845Z,-0.20
2022-12-11T05:51:49.834Z,-0.60
2022-12-11T05:54:19.020Z,-0.60
2022-12-11T05:56:47.663Z,-0.20
2022-12-11T05:59:16.102Z,-0.70
2022-12-11T06:01:45.516Z,-0.70
2022-12-11T06:04:14.331Z,-0.30
2022-12-11T06:06:44.006Z,-1.00
2022-12-11T06:09:16.597Z,-0.90
2022-12-11T06:11:45.195Z,-1.00
2022-12-11T06:14:14.405Z,-1.00
2022-12-11T06:16:43.273Z,-1.10
2022-12-11T06:19:15.144Z,-1.10
2022-12-11T06:21:44.191Z,-1.10
2022-12-11T06:24:14.465Z,-1.10
2022-12-11T06:26:42.697Z,-1.20
2022-12-11T06:29:13.213Z,-1.20
2022-12-11T06:31:42.176Z,-1.20
2022-12-11T06:34:13.638Z,-1.20
2022-12-11T06:36:42.477Z,-1.30
2022-12-11T06:39:12.881Z,-1.40
2022-12-11T06:41:42.843Z,-1.40
2022-12-11T06:44:11.645Z,-1.40
2022-12-11T06:46:40.051Z,-1.30
2022-12-11T06:49:08.266Z,-1.30
2022-12-11T06:51:37.107Z,-1.30
2022-12-11T06:54:05.737Z,-1.20
2022-12-11T06:56:36.016Z,-1.20
2022-12-11T06:59:07.432Z,-1.10
2022-12-11T07:01:36.692Z,-1.00
2022-12-11T07:04:05.636Z,-1.00
2022-12-11T07:06:34.052Z,-1.00
2022-12-11T07:09:06.153Z,-0.90
2022-12-11T07:11:34.463Z,-0.80
2022-12-11T07:14:03.109Z,-0.70
2022-12-11T07:16:33.444Z,-0.70
2022-12-11T07:19:01.861Z,-0.70
2022-12-11T07:21:30.279Z,-0.70
2022-12-11T07:23:59.017Z,-0.60
2022-12-11T07:26:28.268Z,-0.50
2022-12-11T07:40:18.469Z,-0.20
2022-12-11T08:07:18.675Z,0.50
2022-12-11T08:09:46.859Z,0.60
2022-12-11T08:12:15.489Z,0.60
2022-12-11T08:14:43.614Z,0.70
2022-12-11T08:17:12.039Z,0.70
2022-12-11T08:19:40.142Z,0.80
2022-12-11T08:22:09.348Z,0.80
2022-12-11T08:24:38.926Z,0.70
2022-12-11T08:27:07.783Z,0.70
2022-12-11T08:29:37.291Z,0.70
2022-12-11T08:32:11.893Z,0.70
2022-12-11T08:34:41.090Z,0.70
2022-12-11T08:37:09.412Z,0.80
2022-12-11T08:39:39.150Z,0.90
2022-12-11T08:42:08.730Z,1.00
2022-12-11T08:44:37.389Z,0.90
2022-12-11T08:47:05.622Z,1.00
2022-12-11T08:49:34.759Z,1.10
2022-12-11T08:52:04.254Z,1.10
2022-12-11T08:54:33.535Z,1.30
2022-12-11T08:57:03.005Z,1.40
2022-12-11T08:59:31.720Z,1.50
2022-12-11T09:07:19.383Z,1.60
2022-12-11T09:09:47.778Z,1.80
2022-12-11T09:12:18.144Z,1.80
2022-12-11T09:14:47.693Z,1.90
2022-12-11T09:17:16.574Z,1.90
2022-12-11T09:19:45.167Z,1.90
2022-12-11T09:22:13.838Z,1.90
2022-12-11T09:24:42.457Z,2.00
2022-12-11T09:27:10.616Z,2.00
2022-12-11T09:29:42.637Z,2.10
2022-12-11T09:32:10.835Z,2.20
2022-12-11T09:34:39.266Z,2.20
2022-12-11T09:37:07.511Z,2.20
2022-12-11T09:39:35.944Z,2.30
2022-12-11T09:42:15.296Z,2.40
2022-12-11T09:44:49.959Z,2.30
2022-12-11T09:47:26.009Z,2.20
2022-12-11T09:50:12.074Z,2.20
2022-12-11T09:52:55.463Z,2.30
2022-12-11T09:55:28.451Z,2.30
2022-12-11T09:58:11.352Z,2.30
2022-12-11T10:00:48.435Z,2.30
2022-12-11T10:04:04.096Z,2.30
2022-12-11T10:06:42.868Z,2.20
2022-12-11T10:09:27.802Z,2.30
2022-12-11T10:12:17.115Z,2.40
2022-12-11T10:15:13.436Z,2.30
2022-12-11T10:17:45.699Z,2.40
2022-12-11T10:20:27.187Z,2.40
2022-12-11T10:22:58.247Z,2.50
2022-12-11T10:25:31.749Z,2.50
2022-12-11T10:28:06.481Z,2.60
2022-12-11T10:30:41.944Z,2.60
2022-12-11T10:33:23.202Z,2.60
2022-12-11T10:35:54.719Z,2.60
2022-12-11T10:38:29.443Z,2.60
2022-12-11T10:41:02.458Z,2.70
2022-12-11T10:43:37.946Z,2.60
2022-12-11T10:46:09.339Z,2.70
2022-12-11T10:48:47.840Z,2.80
2022-12-11T10:51:16.914Z,2.70
2022-12-11T10:53:51.402Z,2.70
2022-12-11T10:56:29.204Z,2.70
2022-12-11T10:59:00.112Z,2.60
2022-12-11T11:01:32.332Z,2.60
2022-12-11T11:04:07.414Z,2.70
2022-12-11T11:06:36.652Z,2.70
2022-12-11T11:09:06.417Z,2.80
2022-12-11T11:11:38.579Z,2.90
2022-12-11T11:14:18.132Z,3.00
2022-12-11T11:16:51.062Z,3.00
2022-12-11T11:19:26.184Z,3.00
2022-12-11T11:21:59.580Z,3.00
2022-12-11T11:24:33.771Z,3.00
2022-12-11T11:27:13.129Z,3.10
2022-12-11T11:29:46.605Z,3.10
2022-12-11T11:32:22.860Z,3.10
2022-12-11T11:34:52.800Z,3.00
2022-12-11T11:37:34.641Z,2.90
2022-12-11T11:40:13.116Z,2.90
2022-12-11T11:42:53.399Z,2.90
2022-12-11T11:45:29.787Z,2.80
2022-12-11T11:48:12.356Z,2.80
2022-12-11T11:50:50.440Z,2.90
2022-12-11T11:53:27.975Z,3.00
2022-12-11T11:56:08.007Z,3.00
2022-12-11T11:58:44.397Z,3.00
2022-12-11T12:01:18.261Z,3.00
2022-12-11T12:03:48.864Z,2.90
2022-12-11T12:06:33.408Z,2.90
2022-12-11T12:09:19.459Z,2.80
2022-12-11T12:11:58.896Z,2.90
2022-12-11T12:14:52.149Z,2.90
2022-12-11T12:17:38.148Z,3.00
2022-12-11T12:20:25.429Z,3.00
2022-12-11T12:23:16.533Z,3.20
2022-12-11T12:25:54.081Z,3.30
2022-12-11T12:28:37.395Z,3.40
2022-12-11T12:31:26.152Z,3.50
2022-12-11T12:34:06.747Z,3.50
2022-12-11T12:36:47.152Z,3.60
2022-12-11T12:39:33.615Z,3.70
2022-12-11T12:42:13.679Z,3.70
2022-12-11T12:44:58.180Z,3.80
2022-12-11T12:47:31.992Z,3.90
2022-12-11T12:50:03.440Z,3.90
2022-12-11T12:52:37.392Z,4.00
2022-12-11T12:55:23.848Z,4.00
2022-12-11T12:57:57.440Z,4.00
2022-12-11T13:00:36.481Z,4.00
2022-12-11T13:03:17.185Z,3.90
2022-12-11T13:05:57.793Z,3.80
2022-12-11T13:08:28.703Z,3.70
2022-12-11T13:11:08.132Z,3.70
2022-12-11T13:13:40.714Z,3.70
2022-12-11T13:16:27.652Z,3.70
2022-12-11T13:18:57.096Z,3.50
2022-12-11T13:21:32.453Z,3.40
2022-12-11T13:24:18.116Z,3.30
2022-12-11T13:26:49.473Z,3.30
2022-12-11T13:29:36.784Z,3.30
2022-12-11T13:32:24.684Z,3.30
2022-12-11T13:34:57.524Z,3.30
2022-12-11T13:37:32.024Z,3.30
2022-12-11T13:40:02.164Z,3.40
2022-12-11T13:42:38.787Z,3.40
2022-12-11T13:45:19.017Z,3.50
2022-12-11T13:47:48.205Z,3.50
2022-12-11T13:50:25.444Z,3.50
2022-12-11T13:52:59.672Z,3.60
2022-12-11T13:55:32.354Z,3.50
2022-12-11T13:58:02.913Z,3.40
2022-12-11T14:00:33.386Z,3.40
2022-12-11T14:03:07.546Z,3.30
2022-12-11T14:05:38.205Z,3.30
2022-12-11T14:08:10.240Z,3.30
2022-12-11T14:10:40.648Z,3.20
2022-12-11T14:13:26.368Z,3.20
2022-12-11T14:15:56.354Z,3.20
2022-12-11T14:18:30.315Z,3.20
2022-12-11T14:21:02.496Z,3.10
2022-12-11T14:23:32.802Z,3.10
2022-12-11T14:26:04.011Z,3.10
2022-12-11T14:28:39.792Z,3.10
2022-12-11T14:31:08.792Z,3.00
2022-12-11T14:33:42.152Z,2.90
2022-12-11T14:36:12.412Z,2.90
2022-12-11T14:38:48.936Z,2.80
2022-12-11T14:41:25.116Z,2.80
2022-12-11T14:44:00.358Z,2.80
2022-12-11T14:46:40.600Z,2.60
2022-12-11T14:49:18.390Z,2.50
2022-12-11T14:51:49.622Z,2.30
2022-12-11T14:54:28.716Z,2.20
2022-12-11T14:57:00.072Z,2.10
2022-12-11T14:59:33.313Z,2.00
2022-12-11T15:02:05.557Z,2.00
2022-12-11T15:04:35.378Z,1.90
2022-12-11T15:07:03.456Z,1.90
2022-12-11T15:09:41.089Z,1.70
2022-12-11T15:12:15.799Z,1.70
2022-12-11T15:14:53.998Z,1.60
2022-12-11T15:17:25.661Z,1.60
2022-12-11T15:19:58.475Z,1.60
2022-12-11T15:22:33.280Z,1.60
2022-12-11T15:25:02.557Z,1.60
2022-12-11T15:27:37.120Z,1.50
2022-12-11T15:30:28.935Z,1.50
2022-12-11T15:33:21.982Z,1.50
2022-12-11T15:36:23.286Z,1.40
2022-12-11T15:38:51.645Z,1.40
2022-12-11T15:41:24.279Z,1.40
2022-12-11T15:43:58.656Z,1.30
2022-12-11T15:46:29.178Z,1.30
2022-12-11T15:48:58.336Z,1.30
2022-12-11T15:51:27.456Z,1.20
2022-12-11T15:53:56.135Z,1.20
2022-12-11T15:56:24.249Z,1.20
2022-12-11T15:58:53.781Z,1.20
2022-12-11T16:01:21.993Z,1.20
2022-12-11T16:04:04.686Z,1.20
2022-12-11T16:06:34.055Z,1.20
2022-12-11T16:09:04.380Z,1.20
2022-12-11T16:11:32.843Z,1.20
2022-12-11T16:14:04.173Z,1.20
2022-12-11T16:16:33.043Z,1.20
2022-12-11T16:19:03.192Z,1.20
2022-12-11T16:21:31.319Z,1.20
2022-12-11T16:23:59.454Z,1.20
2022-12-11T16:26:28.420Z,1.10
2022-12-11T16:28:56.964Z,1.10
2022-12-11T16:31:25.566Z,1.00
2022-12-11T16:33:54.786Z,1.10
2022-12-11T16:36:25.173Z,1.00
2022-12-11T16:38:54.315Z,0.90
2022-12-11T16:41:24.822Z,0.90
2022-12-11T16:43:54.757Z,0.90
2022-12-11T16:46:25.147Z,0.90
2022-12-11T16:48:53.517Z,1.00
2022-12-11T16:51:21.633Z,1.00
2022-12-11T16:53:51.180Z,1.00
2022-12-11T16:56:19.647Z,1.00
2022-12-11T16:58:48.439Z,1.00
2022-12-11T17:01:17.581Z,1.00
2022-12-11T17:03:46.008Z,1.00
2022-12-11T17:06:18.904Z,1.00
2022-12-11T17:08:48.692Z,1.00
2022-12-11T17:11:22.487Z,0.90
2022-12-11T17:14:00.608Z,0.90
2022-12-11T17:16:30.867Z,1.00
2022-12-11T17:18:59.470Z,1.00
2022-12-11T17:21:27.801Z,1.00
2022-12-11T17:23:56.825Z,1.00
2022-12-11T17:26:28.472Z,1.00
2022-12-11T17:28:59.199Z,1.00
2022-12-11T17:31:27.536Z,1.00
2022-12-11T17:33:57.305Z,1.00
2022-12-11T17:36:25.502Z,1.00
2022-12-11T17:38:55.250Z,1.00
2022-12-11T17:41:23.602Z,0.90
2022-12-11T17:43:55.345Z,0.90
2022-12-11T17:46:23.491Z,0.90
2022-12-11T17:48:52.271Z,0.90
2022-12-11T17:51:24.454Z,0.90
2022-12-11T17:53:56.374Z,0.90
2022-12-11T17:56:25.947Z,0.90
2022-12-11T17:58:55.378Z,0.80
2022-12-11T18:01:23.916Z,0.80
2022-12-11T18:03:53.105Z,0.80
2022-12-11T18:06:22.956Z,0.80
2022-12-11T18:08:51.100Z,0.70
2022-12-11T18:11:22.832Z,0.70
2022-12-11T18:13:53.009Z,0.60
2022-12-11T18:16:26.594Z,0.60
2022-12-11T18:18:57.003Z,0.50
2022-12-11T18:21:29.598Z,0.50
2022-12-11T18:23:59.356Z,0.40
2022-12-11T18:26:28.335Z,0.40
2022-12-11T18:28:57.274Z,0.30
2022-12-11T18:31:27.986Z,0.30
2022-12-11T18:33:56.850Z,0.20
2022-12-11T18:36:25.310Z,0.20
2022-12-11T18:38:53.562Z,0.10
2022-12-11T18:41:22.013Z,0.00
2022-12-11T18:43:50.311Z,0.00
2022-12-11T18:46:21.887Z,-0.10
2022-12-11T18:48:51.727Z,-0.10
2022-12-11T18:51:25.147Z,-0.10
2022-12-11T18:53:55.107Z,-0.20
2022-12-11T18:56:25.153Z,-0.30
2022-12-11T18:58:53.431Z,-0.40
2022-12-11T19:01:25.615Z,-0.50
2022-12-11T19:04:02.733Z,-0.60
2022-12-11T19:06:35.754Z,-0.60
2022-12-11T19:09:07.098Z,-0.60
2022-12-11T19:11:40.975Z,-0.70
2022-12-11T19:14:10.832Z,-0.70
2022-12-11T19:16:43.206Z,-0.70
2022-12-11T19:19:18.127Z,-0.80
2022-12-11T19:21:49.163Z,-0.90
2022-12-11T19:24:21.107Z,-0.80
2022-12-11T19:26:50.695Z,-0.90
2022-12-11T19:29:23.281Z,-1.00
2022-12-11T19:31:52.208Z,-1.00
2022-12-11T19:34:22.364Z,-1.10
2022-12-11T19:36:51.442Z,-1.10
2022-12-11T19:39:21.081Z,-1.30
2022-12-11T19:41:50.660Z,-1.30
2022-12-11T19:44:18.812Z,-1.30
2022-12-11T19:46:47.884Z,-1.30
2022-12-11T19:49:17.097Z,-1.40
2022-12-11T19:51:48.043Z,-1.40
2022-12-11T19:54:18.079Z,-1.30
2022-12-11T19:56:46.962Z,-1.30
2022-12-11T19:59:18.140Z,-1.30
2022-12-11T20:01:50.130Z,-1.20
2022-12-11T20:04:19.954Z,-1.10
2022-12-11T20:06:52.319Z,-1.00
2022-12-11T20:09:21.196Z,-1.00
2022-12-11T20:11:49.488Z,-1.00
2022-12-11T20:14:24.191Z,-1.00
2022-12-11T20:17:13.928Z,-1.00
2022-12-11T20:19:44.892Z,-1.00
2022-12-11T20:22:14.379Z,-1.00
2022-12-11T20:24:42.826Z,-1.00
2022-12-11T20:27:12.586Z,-1.00
2022-12-11T20:29:40.804Z,-0.90
2022-12-11T20:32:11.739Z,-0.80
2022-12-11T20:34:40.007Z,-0.80
2022-12-11T20:37:08.790Z,-0.70
2022-12-11T20:39:39.130Z,-0.70
2022-12-11T20:42:26.471Z,-0.60
2022-12-11T20:44:55.091Z,-0.60
2022-12-11T20:47:23.242Z,-0.50
2022-12-11T20:49:52.601Z,-0.30
2022-12-11T20:52:22.482Z,-0.30
2022-12-11T20:54:52.652Z,-0.20
2022-12-11T20:57:20.983Z,-0.20
2022-12-11T20:59:50.728Z,-0.20
2022-12-11T21:02:19.908Z,-0.20
2022-12-11T21:04:48.714Z,-0.10
2022-12-11T21:07:17.486Z,0.00
2022-12-11T21:09:46.659Z,0.00
2022-12-11T21:12:16.340Z,0.00
2022-12-11T21:14:45.594Z,0.00
2022-12-11T21:17:14.330Z,0.00
2022-12-11T21:19:42.544Z,0.00
2022-12-11T21:22:11.203Z,0.10
2022-12-11T21:24:39.893Z,0.20
2022-12-11T21:27:09.631Z,0.20
2022-12-11T21:29:39.092Z,0.30
2022-12-11T21:32:07.443Z,0.30
2022-12-11T21:34:37.909Z,0.30
2022-12-11T21:37:06.707Z,0.30
2022-12-11T21:39:39.267Z,0.30
2022-12-11T21:42:07.627Z,0.20
2022-12-11T21:47:27.990Z,0.20
2022-12-11T21:49:56.108Z,0.10
2022-12-11T21:52:24.239Z,0.10
2022-12-11T21:54:52.351Z,0.00
2022-12-11T21:57:26.129Z,0.00
2022-12-11T21:59:55.011Z,0.00
2022-12-11T22:02:23.865Z,0.00
2022-12-11T22:04:53.415Z,0.00
2022-12-11T22:07:23.378Z,0.00
2022-12-11T22:09:51.523Z,0.00
2022-12-11T22:12:30.057Z,0.00
2022-12-11T22:14:58.378Z,0.10
2022-12-11T22:17:26.751Z,0.10
2022-12-11T22:19:58.220Z,0.10
2022-12-11T22:22:26.671Z,0.10
2022-12-11T22:24:55.909Z,0.00
2022-12-11T22:27:24.431Z,0.00
2022-12-11T22:29:55.370Z,0.00
2022-12-11T22:32:23.468Z,0.00
2022-12-11T22:34:52.044Z,0.00
2022-12-11T22:37:22.020Z,0.00
2022-12-11T22:39:50.322Z,0.00
2022-12-11T22:42:18.774Z,0.00
2022-12-11T22:44:47.407Z,0.10
2022-12-11T22:47:18.227Z,0.10
2022-12-11T22:49:46.553Z,0.00
2022-12-11T22:52:15.075Z,-0.10
2022-12-11T22:54:44.854Z,-0.10
2022-12-11T22:57:14.687Z,-0.20
2022-12-11T22:59:43.028Z,-0.20
2022-12-11T23:02:11.267Z,-0.20
2022-12-11T23:04:40.266Z,-0.20
2022-12-11T23:07:10.044Z,-0.30
2022-12-11T23:09:38.589Z,-0.40
2022-12-11T23:12:10.804Z,-0.50
2022-12-11T23:14:39.923Z,-0.60
2022-12-11T23:17:08.053Z,-0.70
2022-12-11T23:19:37.258Z,-0.70
2022-12-11T23:22:05.604Z,-0.80
2022-12-11T23:24:34.138Z,-0.90
2022-12-11T23:27:02.705Z,-1.00
2022-12-11T23:29:32.473Z,-1.10
2022-12-11T23:32:00.984Z,-1.10
2022-12-11T23:34:30.528Z,-1.20
2022-12-11T23:36:58.739Z,-1.30
2022-12-11T23:39:27.218Z,-1.40
2022-12-11T23:41:55.350Z,-1.40
2022-12-11T23:44:23.583Z,-1.40
2022-12-11T23:46:53.287Z,-1.50
2022-12-11T23:49:21.896Z,-1.50
2022-12-11T23:51:50.399Z,-1.50
2022-12-11T23:54:19.524Z,-1.50
2022-12-11T23:56:48.004Z,-1.50
2022-12-11T23:59:16.982Z,-1.50
